Terminal Aerodrome Forecast
Issued by NWS

Home | Current Version | Previous Version | Text Only | Print | Product List | Glossary Off
Versions: 1 2 3 4 5 6 7 8 9 10 11 12 13

145
FTUS43 KICT 192320
TAFRSL
TAF
KRSL 192320Z 2000/2024 18015G23KT P6SM SKC
     FM200200 17011KT P6SM SKC
     FM200800 19011KT P6SM SKC WS015/21040KT
     FM201300 20012KT P6SM SKC
     FM201900 19016G24KT P6SM FEW200=

USA.gov is the U.S. government's official web portal to all federal, state and local government web resources and services.